»·PEaware :: ENY3660 KSBA-KSFO

ENY3660 :: KSBA-KSFO

FLIGHT INFORMATION

Flight Status: Arrived
Operator: Unknown
More flights by this operator :: More flights under this callsign
Pilot: Alex K. (14822)
Aircraft: EMBRAER EMB-170/175
(E170)
More flights by this aircraft type
Origin: KSBA Santa Barbara Mun
United States
Destination: KSFO San Francisco Intl
United States
More flights between these airports :: More routes between these airports
Route: GAUCH1 MQO SERFR SERFR3
File this flight plan on PilotEdge
Remarks: oofda der guy
Altitude:
(Current/Filed)
24,000ft
Speed:
(Current/Filed)
420kts
Departed: 06-Feb-19 06:41 PM
Arrived: 06-Feb-19 07:25 PM
Distance/Time
Traveled:
228nm/0:43
Distance/Time
To Go:
Arrived

Flight Plot

Page will automatically refresh every two minutes.

Flight plan parsing failed; only flown route is shown


Map Options




Map Legend


Flown Route
Filed Route
Departure Airport
Arrival Airport
Navaid (VOR, NDB)
Fix

Horizontal Profiles

Position Reports

Time Latitude Longitude Heading Altitude Ground
Speed
06-Feb-19 18:21 34.425127 -119.837252 114 19ft 0kts
06-Feb-19 18:22 34.425127 -119.837252 114 19ft 0kts
06-Feb-19 18:23 34.425127 -119.837252 114 19ft 0kts
06-Feb-19 18:24 34.425127 -119.837252 114 19ft 0kts
06-Feb-19 18:25 34.425127 -119.837252 114 19ft 0kts
06-Feb-19 18:26 34.425127 -119.837252 114 19ft 0kts
06-Feb-19 18:27 34.425127 -119.837252 114 19ft 0kts
06-Feb-19 18:28 34.425127 -119.837252 114 19ft 0kts
06-Feb-19 18:29 34.425127 -119.837252 114 19ft 0kts
06-Feb-19 18:30 34.425127 -119.837252 114 19ft 0kts
06-Feb-19 18:31 34.425125 -119.837248 114 19ft 0kts
06-Feb-19 18:32 34.425214 -119.837657 68 19ft 2kts
06-Feb-19 18:33 34.424933 -119.837820 344 19ft 0kts
06-Feb-19 18:34 34.424933 -119.837820 344 19ft 0kts
06-Feb-19 18:35 34.424940 -119.837822 344 19ft 0kts
06-Feb-19 18:36 34.426525 -119.838166 28 19ft 11kts
06-Feb-19 18:37 34.427068 -119.834644 16 19ft 0kts
06-Feb-19 18:38 34.427071 -119.834643 17 19ft 0kts
06-Feb-19 18:39 34.427727 -119.834673 338 19ft 10kts
06-Feb-19 18:40 34.427699 -119.863627 269 1080ft 125kts
06-Feb-19 18:41 34.426878 -119.909583 267 2545ft 168kts
06-Feb-19 18:42 34.426006 -119.975734 267 3036ft 217kts
06-Feb-19 18:43 34.424271 -120.057851 268 7565ft 241kts
06-Feb-19 18:44 34.422926 -120.142985 278 8025ft 256kts
06-Feb-19 18:45 34.478465 -120.204768 330 10245ft 319kts
06-Feb-19 18:46 34.559539 -120.252611 332 13068ft 330kts
06-Feb-19 18:47 34.636656 -120.315272 319 16079ft 341kts
06-Feb-19 18:48 34.712183 -120.388829 320 18875ft 356kts
06-Feb-19 18:49 34.797701 -120.453645 330 21339ft 372kts
06-Feb-19 18:50 34.890957 -120.513992 329 23474ft 385kts
06-Feb-19 18:51 34.988967 -120.579653 329 24236ft 428kts
06-Feb-19 18:52 35.089673 -120.647663 329 24233ft 429kts
06-Feb-19 18:53 35.189805 -120.716114 328 24236ft 429kts
06-Feb-19 18:54 35.292806 -120.787627 327 24237ft 428kts
06-Feb-19 18:55 35.393605 -120.861417 327 24235ft 428kts
06-Feb-19 18:56 35.495881 -120.937018 327 24233ft 428kts
06-Feb-19 18:57 35.597676 -121.012182 327 24231ft 428kts
06-Feb-19 18:58 35.700219 -121.088163 327 24239ft 430kts
06-Feb-19 18:59 35.802985 -121.164417 327 24253ft 431kts
06-Feb-19 19:00 35.902795 -121.239021 327 24244ft 414kts
06-Feb-19 19:01 36.001553 -121.313407 327 24246ft 416kts
06-Feb-19 19:02 36.099874 -121.389055 326 24251ft 416kts
06-Feb-19 19:03 36.198301 -121.464986 326 24257ft 417kts
06-Feb-19 19:04 36.292748 -121.538689 326 24272ft 424kts
06-Feb-19 19:05 36.391243 -121.616522 326 24240ft 396kts
06-Feb-19 19:06 36.482072 -121.688677 324 24267ft 388kts
06-Feb-19 19:07 36.573988 -121.762048 325 22560ft 389kts
06-Feb-19 19:08 36.663663 -121.832799 325 20579ft 370kts
06-Feb-19 19:09 36.749937 -121.897529 335 18871ft 360kts
06-Feb-19 19:10 36.843015 -121.925018 347 16875ft 356kts
06-Feb-19 19:11 36.938474 -121.949060 344 15102ft 340kts
06-Feb-19 19:12 37.029152 -121.982627 339 12959ft 337kts
06-Feb-19 19:13 37.117678 -122.017975 340 10921ft 331kts
06-Feb-19 19:14 37.197426 -122.048641 339 9322ft 268kts
06-Feb-19 19:15 37.268549 -122.076765 339 8121ft 269kts
06-Feb-19 19:16 37.339261 -122.104530 339 6522ft 256kts
06-Feb-19 19:17 37.407339 -122.129776 341 5135ft 253kts
06-Feb-19 19:18 37.474245 -122.152682 341 4047ft 242kts
06-Feb-19 19:19 37.531873 -122.182187 307 3115ft 205kts
06-Feb-19 19:20 37.559506 -122.235448 296 2351ft 148kts
06-Feb-19 19:21 37.576694 -122.275334 294 1515ft 127kts
06-Feb-19 19:22 37.592960 -122.314290 294 799ft 124kts
06-Feb-19 19:23 37.609168 -122.352281 294 176ft 120kts
06-Feb-19 19:24 37.618979 -122.376982 271 23ft 29kts
06-Feb-19 19:25 37.618435 -122.382120 137 29ft 8kts
06-Feb-19 19:26 37.618304 -122.381972 138 29ft 0kts
06-Feb-19 19:27 37.618304 -122.381972 138 29ft 0kts

Navigation Log

Ident Type
Flight plan parsing failed, navigation log unavailable